Relatrios de METAR prximas

 

LPAR - Alverca, Portugal
Distance from station: S 38km
Actualizado: 12/06/2024 15:00
Cu Limpo
Cu Limpo
 Vento de N
Vento: N 22 km/h
Temperatura: 24°C
Ponto de Orvalho: 10°C
Humidade: 41%
Barmetro: 1018 hPa
Resumo: Cu Limpo
Visibilidade: greater than 10 km
2024/06/12 14:00 LPAR 121400Z 01012KT CAVOK 24/10 Q1018
LPPT - Lisbon/Portela, Portugal
Distance from station: S 52km
Actualizado: 12/06/2024 15:30
Few Clouds
Few Clouds
 Vento de NNO
Vento: NNO 24 km/h, Rajada: 43 km/h
Temperatura: 22°C
Ponto de Orvalho: 12°C
Humidade: 53%
Barmetro: 1018 hPa
Nuvens: Few Clouds
Visibilidade: 10 km
Cloud details: Few Clouds 914 m
2024/06/12 14:30 LPPT 121430Z 33013G23KT 290V360 9999 FEW030 22/12 Q1018
 
LPST - Sintra/Granja (a, Portugal
Distance from station: SSO 53km
Actualizado: 12/06/2024 15:00
Few Clouds
Few Clouds
 Vento de NO
Vento: NO 31 km/h
Temperatura: 20°C
Ponto de Orvalho: 13°C
Humidade: 64%
Barmetro: 1019 hPa
Nuvens: Few Clouds
Visibilidade: 10 km
Cloud details: Few Clouds 610 m
2024/06/12 14:00 LPST 121400Z 32017KT 9999 FEW020 20/13 Q1019
LPMT - Montijo (por-Afb, Portugal
Distance from station: S 59km
Actualizado: 12/06/2024 15:00
Cu Limpo
Cu Limpo
 Vento de NO
Vento: NO 19 km/h
Temperatura: 24°C
Ponto de Orvalho: 13°C
Humidade: 50%
Barmetro: 1018 hPa
Resumo: Cu Limpo
Visibilidade: greater than 10 km
2024/06/12 14:00 LPMT 121400Z 32010KT 290V350 CAVOK 24/13 Q1018
 
LPCS - Cascais, Portugal
Distance from station: SSO 63km
Actualizado: 12/06/2024 15:30
Few Clouds
Few Clouds
 Vento de NNO
Vento: NNO 33 km/h
Temperatura: 20°C
Ponto de Orvalho: 12°C
Humidade: 60%
Barmetro: 1019 hPa
Nuvens: Few Clouds
Visibilidade: 10 km
Cloud details: Few Clouds 610 m
2024/06/12 14:30 LPCS 121430Z 33018KT 300V360 9999 FEW020 20/12 Q1019 WS R35
LPMR - Monte Real(Por-A, Portugal
Distance from station: N 67km
Actualizado: 12/06/2024 15:00
Few Clouds
Few Clouds
 Vento de NNO
Vento: NNO 26 km/h
Temperatura: 19°C
Ponto de Orvalho: 11°C
Humidade: 60%
Barmetro: 1019 hPa
Nuvens: Few Clouds
Visibilidade: 10 km
Cloud details: Few Clouds 914 m
2024/06/12 14:00 LPMR 121400Z 34014KT 9999 FEW030 19/11 Q1019